Time;durP1;ratioP1;P1;durP2;ratioP2;P2;SDS_P1;SDS_P2;PMS_P1;PMS_P2;Temp;Humidity;BMP_temperature;BMP_pressure;BME280_temperature;BME280_humidity;BME280_pressure;Samples;Min_cycle;Max_cycle;Signal;HPM_P1;HPM_P2
2023/07/03 05:01:11;;;;;;;9.30;3.05;;;20.70;66.80;;;;;;6124367;23;87487;-63
2023/07/03 05:03:38;;;;;;;7.57;2.63;;;20.80;65.50;;;;;;6126712;23;87485;-63
2023/07/03 05:06:05;;;;;;;8.07;2.40;;;20.80;65.30;;;;;;6126691;23;88631;-63
2023/07/03 05:08:30;;;;;;;9.45;3.03;;;20.80;65.40;;;;;;6125700;23;87838;-64
2023/07/03 05:10:56;;;;;;;11.38;3.15;;;20.80;65.60;;;;;;6126422;23;88244;-64
2023/07/03 05:13:21;;;;;;;8.60;2.67;;;20.80;66.10;;;;;;6126747;23;87372;-63
2023/07/03 05:15:47;;;;;;;10.52;3.08;;;20.80;66.10;;;;;;6125866;23;88366;-63
2023/07/03 05:18:13;;;;;;;6.88;2.50;;;20.80;68.70;;;;;;6126554;23;87693;-63
2023/07/03 05:20:38;;;;;;;13.73;3.33;;;21.00;68.80;;;;;;6123831;23;87482;-63
2023/07/03 05:23:04;;;;;;;12.48;3.35;;;21.10;67.30;;;;;;6127022;23;87332;-63
2023/07/03 05:25:30;;;;;;;8.90;2.95;;;21.20;66.40;;;;;;6126227;23;88148;-63
2023/07/03 05:27:55;;;;;;;13.10;3.10;;;21.20;65.20;;;;;;6127631;23;88451;-63
2023/07/03 05:30:21;;;;;;;12.80;2.75;;;21.10;65.40;;;;;;6127421;23;87581;-63
2023/07/03 05:32:46;;;;;;;9.68;3.13;;;21.10;64.90;;;;;;6127789;23;87540;-64
2023/07/03 05:35:13;;;;;;;8.82;2.83;;;21.10;65.30;;;;;;6127244;23;89164;-72
2023/07/03 05:37:38;;;;;;;11.10;3.28;;;21.00;65.90;;;;;;6126429;23;89194;-73
2023/07/03 05:40:06;;;;;;;12.73;3.33;;;20.90;67.00;;;;;;6127335;23;88700;-71
2023/07/03 05:42:32;;;;;;;10.90;3.65;;;21.00;65.10;;;;;;6125622;23;87365;-71
2023/07/03 05:44:58;;;;;;;7.30;2.75;;;21.10;64.60;;;;;;6125554;23;88643;-71
2023/07/03 05:47:23;;;;;;;8.13;2.53;;;21.10;65.60;;;;;;6098953;23;89612;-72
2023/07/03 05:49:49;;;;;;;10.43;3.35;;;21.20;64.70;;;;;;6126180;23;87345;-67
2023/07/03 05:52:15;;;;;;;10.05;3.60;;;21.30;64.50;;;;;;6127021;23;86420;-70
2023/07/03 05:54:41;;;;;;;14.18;3.60;;;21.40;64.30;;;;;;6126597;23;87911;-68
2023/07/03 05:57:09;;;;;;;8.80;3.10;;;21.40;64.10;;;;;;6127105;23;87336;-71
2023/07/03 05:59:37;;;;;;;10.73;2.95;;;21.60;64.50;;;;;;6126460;23;88556;-69
2023/07/03 06:02:06;;;;;;;9.10;3.70;;;21.70;64.50;;;;;;6126974;23;87763;-69
2023/07/03 06:04:33;;;;;;;8.18;2.85;;;21.70;63.40;;;;;;6126595;23;91099;-68
2023/07/03 06:06:59;;;;;;;8.32;3.03;;;21.80;64.30;;;;;;6127348;23;87769;-70
2023/07/03 06:09:27;;;;;;;11.65;2.83;;;21.80;64.80;;;;;;6127790;23;87386;-67
2023/07/03 06:11:53;;;;;;;7.70;3.13;;;21.90;64.50;;;;;;6127067;23;87357;-70
2023/07/03 06:14:19;;;;;;;12.88;3.67;;;21.90;64.60;;;;;;6127497;23;88193;-72
2023/07/03 06:16:47;;;;;;;11.07;2.78;;;21.90;64.60;;;;;;6100680;23;89709;-67
2023/07/03 06:19:14;;;;;;;9.48;3.78;;;22.00;65.80;;;;;;6127570;23;87012;-70
2023/07/03 06:21:40;;;;;;;9.73;3.22;;;22.00;64.90;;;;;;6127526;23;87404;-68
2023/07/03 06:24:08;;;;;;;13.80;3.20;;;22.00;64.60;;;;;;6125439;23;88643;-70
2023/07/03 06:26:34;;;;;;;9.00;3.28;;;22.00;64.20;;;;;;6127343;23;89677;-68
2023/07/03 06:29:02;;;;;;;12.10;3.10;;;22.10;62.90;;;;;;6126959;23;87424;-69
2023/07/03 06:31:28;;;;;;;11.25;3.28;;;22.20;64.40;;;;;;6128158;23;87271;-67
2023/07/03 06:33:54;;;;;;;9.90;3.53;;;22.10;64.20;;;;;;6126622;23;87307;-68
2023/07/03 06:36:21;;;;;;;8.13;2.85;;;22.20;62.80;;;;;;6126919;23;87280;-68
2023/07/03 06:38:57;;;;;;;8.75;3.03;;;22.30;63.60;;;;;;6126922;23;88360;-67
2023/07/03 06:41:26;;;;;;;11.30;3.20;;;22.40;62.80;;;;;;6129316;23;86810;-68
2023/07/03 06:43:51;;;;;;;9.68;3.30;;;22.50;63.30;;;;;;6127147;23;87540;-71
2023/07/03 06:46:17;;;;;;;9.77;2.85;;;22.80;62.50;;;;;;6127613;23;87573;-69
2023/07/03 06:48:43;;;;;;;12.48;3.85;;;23.10;62.50;;;;;;6127670;23;88236;-67
2023/07/03 06:51:10;;;;;;;10.18;3.45;;;23.70;60.80;;;;;;6128591;23;87328;-71
2023/07/03 06:53:36;;;;;;;8.20;3.35;;;24.70;59.70;;;;;;6124762;23;87271;-69
2023/07/03 06:56:03;;;;;;;10.55;3.40;;;25.30;56.50;;;;;;6127870;23;87910;-70
2023/07/03 06:58:30;;;;;;;9.02;3.33;;;25.80;56.20;;;;;;6126405;23;87543;-68
2023/07/03 07:00:56;;;;;;;9.68;3.63;;;26.20;55.90;;;;;;6128132;23;87284;-72
2023/07/03 07:03:22;;;;;;;9.27;3.08;;;26.40;55.60;;;;;;6128322;23;88021;-69
2023/07/03 07:05:48;;;;;;;9.68;3.70;;;26.60;54.30;;;;;;6127871;23;86865;-69
2023/07/03 07:08:16;;;;;;;13.88;3.75;;;26.70;54.40;;;;;;6127268;23;87288;-67
2023/07/03 07:10:46;;;;;;;10.07;3.50;;;27.30;53.60;;;;;;6126487;23;87215;-73
2023/07/03 07:13:13;;;;;;;9.20;3.60;;;28.00;52.20;;;;;;6126658;23;89196;-70
2023/07/03 07:15:40;;;;;;;8.32;3.83;;;29.80;51.40;;;;;;6127872;23;88313;-71
2023/07/03 07:18:08;;;;;;;8.07;3.78;;;30.50;48.40;;;;;;6127698;23;87046;-71
2023/07/03 07:20:38;;;;;;;11.35;4.07;;;30.90;48.20;;;;;;6127601;23;87359;-69
2023/07/03 07:23:04;;;;;;;11.40;4.18;;;31.30;47.70;;;;;;6127832;23;88549;-69
2023/07/03 07:25:29;;;;;;;10.38;4.13;;;31.80;46.20;;;;;;6127837;23;87789;-71
2023/07/03 07:27:55;;;;;;;12.13;4.22;;;32.10;45.60;;;;;;6128228;23;87283;-72
2023/07/03 07:30:21;;;;;;;9.85;4.07;;;31.80;45.70;;;;;;6129176;23;86587;-69
2023/07/03 07:32:49;;;;;;;10.50;4.97;;;31.40;47.20;;;;;;6127460;23;87260;-68
2023/07/03 07:35:15;;;;;;;13.38;4.15;;;31.90;47.60;;;;;;6127409;23;88562;-68
2023/07/03 07:37:41;;;;;;;11.43;4.78;;;33.20;44.70;;;;;;6127899;23;88229;-71
2023/07/03 07:40:07;;;;;;;11.57;4.57;;;34.70;44.60;;;;;;6128418;23;87385;-69
2023/07/03 07:42:33;;;;;;;10.82;4.75;;;35.00;42.00;;;;;;6127243;23;87218;-70
2023/07/03 07:44:59;;;;;;;9.00;4.55;;;35.50;41.70;;;;;;6128166;23;88150;-69
2023/07/03 07:47:25;;;;;;;9.40;4.70;;;35.30;41.60;;;;;;6128314;23;87508;-70
2023/07/03 07:49:50;;;;;;;12.65;5.07;;;35.80;41.30;;;;;;6128370;23;87229;-69
2023/07/03 07:52:16;;;;;;;8.63;4.70;;;36.30;40.40;;;;;;6127535;23;88078;-69
2023/07/03 07:54:42;;;;;;;12.27;5.05;;;35.90;39.90;;;;;;6123728;23;87581;-69
2023/07/03 07:57:08;;;;;;;11.10;4.95;;;34.70;40.80;;;;;;6125929;23;87180;-68
2023/07/03 07:59:34;;;;;;;10.60;4.45;;;33.50;43.30;;;;;;6127788;23;87588;-69
2023/07/03 08:02:01;;;;;;;9.60;4.45;;;32.30;43.10;;;;;;6126899;23;88525;-70
2023/07/03 08:04:27;;;;;;;9.88;4.35;;;30.90;45.00;;;;;;6128007;23;88084;-70
2023/07/03 08:06:52;;;;;;;9.73;3.80;;;29.60;46.60;;;;;;6128104;23;87225;-69
2023/07/03 08:09:18;;;;;;;11.32;4.90;;;28.70;47.80;;;;;;6128479;23;87360;-67
2023/07/03 08:11:44;;;;;;;10.10;4.28;;;28.00;49.30;;;;;;6126119;23;87672;-67
2023/07/03 08:14:10;;;;;;;13.32;3.92;;;27.30;50.60;;;;;;6127018;23;87370;-68
2023/07/03 08:16:36;;;;;;;10.90;3.78;;;26.90;51.60;;;;;;6124172;23;87396;-68
2023/07/03 08:19:03;;;;;;;12.88;3.83;;;26.50;52.20;;;;;;6127334;23;86755;-69
2023/07/03 08:21:28;;;;;;;12.85;3.78;;;25.90;53.50;;;;;;6126275;23;87684;-67
2023/07/03 08:23:54;;;;;;;12.27;3.75;;;25.70;53.70;;;;;;6126967;23;87863;-68
2023/07/03 08:26:22;;;;;;;9.32;3.63;;;25.50;53.70;;;;;;6126169;23;88294;-67
2023/07/03 08:28:48;;;;;;;10.10;3.58;;;25.10;55.40;;;;;;6123120;23;87408;-67
2023/07/03 08:31:14;;;;;;;13.02;4.03;;;25.10;55.30;;;;;;6127505;23;88500;-68
2023/07/03 08:33:40;;;;;;;11.73;3.90;;;25.10;54.90;;;;;;6126396;23;87274;-67
2023/07/03 08:36:06;;;;;;;11.23;3.72;;;24.90;55.60;;;;;;6127763;23;87219;-69
2023/07/03 08:38:32;;;;;;;12.27;3.63;;;24.70;55.90;;;;;;6127589;23;87661;-68
2023/07/03 08:41:01;;;;;;;10.15;4.15;;;24.80;56.40;;;;;;6127015;23;87473;-69
2023/07/03 08:43:33;;;;;;;9.38;3.55;;;24.80;56.60;;;;;;6128145;23;87890;-67
2023/07/03 08:46:02;;;;;;;9.48;3.42;;;24.80;55.60;;;;;;6127199;23;87676;-68
2023/07/03 08:48:31;;;;;;;10.90;3.25;;;24.90;56.50;;;;;;6127935;23;87324;-69
2023/07/03 08:51:03;;;;;;;12.90;3.75;;;25.00;57.00;;;;;;6123752;23;89541;-68
2023/07/03 08:53:51;;;;;;;9.55;3.40;;;25.20;56.90;;;;;;6125887;23;88653;-72
2023/07/03 08:56:23;;;;;;;10.38;3.45;;;25.40;57.00;;;;;;6125045;23;87468;-68
2023/07/03 08:58:54;;;;;;;11.85;3.92;;;25.30;55.50;;;;;;6125384;23;87428;-68
2023/07/03 09:01:35;;;;;;;12.98;4.10;;;25.50;54.70;;;;;;6125691;23;88672;-66
2023/07/03 09:04:15;;;;;;;8.75;3.40;;;25.50;55.50;;;;;;6126544;23;88876;-67
2023/07/03 09:06:47;;;;;;;8.85;3.70;;;25.50;54.30;;;;;;6127482;23;87307;-69
2023/07/03 09:09:41;;;;;;;12.32;3.85;;;25.40;55.00;;;;;;6128048;23;86459;-68
2023/07/03 09:12:28;;;;;;;11.23;4.65;;;25.20;54.40;;;;;;6127366;23;88175;-68
2023/07/03 09:15:21;;;;;;;11.98;3.80;;;25.30;55.10;;;;;;6126172;23;87673;-71
2023/07/03 09:17:48;;;;;;;12.57;4.60;;;25.70;56.00;;;;;;6126853;23;88265;-67
2023/07/03 09:20:15;;;;;;;11.18;4.30;;;26.00;56.10;;;;;;6128018;23;87071;-67
2023/07/03 09:23:10;;;;;;;8.88;3.92;;;26.10;54.10;;;;;;6126903;23;88575;-68
2023/07/03 09:25:56;;;;;;;;;;;26.00;54.00;;;;;;6120910;23;87712;-68
2023/07/03 09:28:23;;;;;;;11.02;3.17;;;26.10;53.60;;;;;;6128735;23;87444;-67
2023/07/03 09:30:50;;;;;;;12.18;4.25;;;26.10;53.70;;;;;;6127733;23;87469;-67
2023/07/03 09:33:16;;;;;;;10.32;3.45;;;26.00;54.00;;;;;;6127573;23;88271;-69
2023/07/03 09:35:42;;;;;;;10.60;3.92;;;25.80;53.90;;;;;;6126766;23;88265;-72
2023/07/03 09:38:26;;;;;;;11.40;3.53;;;25.50;53.50;;;;;;6127187;23;86942;-68
2023/07/03 09:40:55;;;;;;;10.43;3.88;;;25.40;54.80;;;;;;6127888;23;87460;-67
2023/07/03 09:43:24;;;;;;;10.18;3.88;;;25.30;54.30;;;;;;6126478;23;89167;-68
2023/07/03 09:46:03;;;;;;;13.63;3.78;;;25.00;54.80;;;;;;6126385;23;88729;-66
2023/07/03 09:48:30;;;;;;;11.38;4.05;;;24.90;54.90;;;;;;6127655;23;87451;-68
2023/07/03 09:50:57;;;;;;;10.50;3.65;;;24.90;55.10;;;;;;6127854;23;87171;-68
2023/07/03 09:53:26;;;;;;;14.27;3.70;;;25.00;55.80;;;;;;6127477;23;88233;-69
2023/07/03 09:55:56;;;;;;;9.10;3.53;;;25.00;55.60;;;;;;6126160;23;87832;-66
2023/07/03 09:58:25;;;;;;;13.32;3.83;;;25.00;55.30;;;;;;6126538;23;87375;-69
2023/07/03 10:00:54;;;;;;;13.05;4.00;;;25.00;55.10;;;;;;6124763;23;86587;-68
2023/07/03 10:03:29;;;;;;;10.60;4.03;;;25.20;55.60;;;;;;6126663;23;87764;-69
2023/07/03 10:05:57;;;;;;;8.50;3.30;;;25.30;54.80;;;;;;6127046;23;87662;-69
2023/07/03 10:08:26;;;;;;;11.10;3.90;;;25.30;54.80;;;;;;6099534;23;88085;-66
2023/07/03 10:10:55;;;;;;;11.45;4.18;;;25.40;55.10;;;;;;6127258;23;87354;-68
2023/07/03 10:13:29;;;;;;;8.82;3.38;;;25.40;54.60;;;;;;6127082;23;87621;-68
2023/07/03 10:15:55;;;;;;;7.57;3.40;;;25.60;54.90;;;;;;6127396;23;87822;-68
2023/07/03 10:18:29;;;;;;;10.45;3.85;;;25.80;55.10;;;;;;6127932;23;87498;-69
2023/07/03 10:20:55;;;;;;;10.82;3.78;;;26.70;53.60;;;;;;6128583;23;87458;-67
2023/07/03 10:23:34;;;;;;;9.35;4.22;;;27.50;52.30;;;;;;6128504;23;87481;-67
2023/07/03 10:26:09;;;;;;;10.32;4.32;;;27.80;51.50;;;;;;6127645;23;87765;-67
2023/07/03 10:28:39;;;;;;;14.00;4.32;;;27.60;51.10;;;;;;6127790;23;87384;-67
2023/07/03 10:31:23;;;;;;;12.75;3.70;;;27.50;52.90;;;;;;6126093;23;87422;-68
2023/07/03 10:33:50;;;;;;;11.15;4.25;;;27.40;51.20;;;;;;6126259;23;89148;-67
2023/07/03 10:36:24;;;;;;;10.27;4.20;;;27.70;51.80;;;;;;6126563;23;88046;-67
2023/07/03 10:39:17;;;;;;;12.38;4.35;;;28.20;51.00;;;;;;6127354;23;87052;-68
2023/07/03 10:41:50;;;;;;;10.95;4.13;;;28.70;49.70;;;;;;6126439;23;87472;-70
2023/07/03 10:44:21;;;;;;;11.70;4.13;;;28.80;49.10;;;;;;6125752;23;88550;-67
2023/07/03 10:47:02;;;;;;;13.15;3.83;;;28.60;48.50;;;;;;6126938;23;88036;-67
2023/07/03 10:49:33;;;;;;;11.05;3.85;;;28.20;51.00;;;;;;6127152;23;87221;-67
2023/07/03 10:52:05;;;;;;;8.38;3.83;;;28.10;50.10;;;;;;6099762;23;86794;-68
2023/07/03 10:54:45;;;;;;;12.27;4.32;;;27.70;51.10;;;;;;6121869;23;88121;-67
2023/07/03 10:57:18;;;;;;;10.98;4.53;;;27.70;51.00;;;;;;6124534;23;87314;-67
2023/07/03 10:59:51;;;;;;;10.80;4.20;;;27.80;51.50;;;;;;6121973;23;88441;-67
2023/07/03 11:02:53;;;;;;;10.80;3.83;;;27.90;50.00;;;;;;6123429;23;87713;-68
2023/07/03 11:05:22;;;;;;;14.95;4.32;;;27.60;50.40;;;;;;6121921;23;88781;-68
2023/07/03 11:08:30;;;;;;;9.07;3.80;;;27.60;52.40;;;;;;6124665;23;87930;-67
2023/07/03 11:11:30;;;;;;;14.80;3.92;;;27.70;50.70;;;;;;6014580;23;87879;-67
2023/07/03 11:14:25;;;;;;;11.82;4.38;;;27.50;50.80;;;;;;6122840;23;86970;-68
2023/07/03 11:17:11;;;;;;;;;;;27.20;51.00;;;;;;6125295;23;88729;-68
2023/07/03 11:19:52;;;;;;;9.23;3.25;;;27.20;51.50;;;;;;6126504;23;87525;-69
2023/07/03 11:22:31;;;;;;;11.27;3.88;;;27.40;51.60;;;;;;6126083;23;87410;-67
2023/07/03 11:25:20;;;;;;;10.65;4.25;;;27.40;50.50;;;;;;6125787;23;87419;-68
2023/07/03 11:28:07;;;;;;;11.77;3.90;;;27.40;52.10;;;;;;6123850;23;88974;-68
2023/07/03 11:30:34;;;;;;;11.93;3.90;;;27.50;52.50;;;;;;6125270;23;89195;-68
2023/07/03 11:33:02;;;;;;;9.88;3.90;;;27.60;50.60;;;;;;6127892;23;87249;-69
2023/07/03 11:35:27;;;;;;;11.80;4.00;;;28.00;51.30;;;;;;6125818;23;87781;-66
2023/07/03 11:38:05;;;;;;;11.20;3.97;;;28.10;52.30;;;;;;6126513;23;88138;-68
2023/07/03 11:40:36;;;;;;;10.95;4.20;;;28.00;49.60;;;;;;6126769;23;87772;-67
2023/07/03 11:43:08;;;;;;;10.15;3.88;;;27.90;50.20;;;;;;6128657;23;87380;-67
2023/07/03 11:45:36;;;;;;;12.98;4.35;;;28.00;49.70;;;;;;6128512;23;86711;-67
2023/07/03 11:48:01;;;;;;;13.25;4.97;;;28.00;50.70;;;;;;6127079;23;87465;-69
2023/07/03 11:50:33;;;;;;;10.98;4.55;;;28.10;51.70;;;;;;6127766;23;87708;-67
2023/07/03 11:53:01;;;;;;;9.10;3.75;;;28.30;50.10;;;;;;6127813;23;88206;-69
2023/07/03 11:55:37;;;;;;;10.77;3.75;;;28.50;50.30;;;;;;6127918;23;87440;-66
2023/07/03 11:58:03;;;;;;;9.90;3.65;;;28.20;50.60;;;;;;6127485;23;87336;-69
2023/07/03 12:00:31;;;;;;;10.35;3.92;;;28.30;52.30;;;;;;6127806;23;88716;-69
2023/07/03 12:03:02;;;;;;;10.35;3.88;;;28.20;52.00;;;;;;6127152;23;87133;-68
2023/07/03 12:05:43;;;;;;;9.70;4.05;;;28.30;49.60;;;;;;6127890;23;87027;-67
2023/07/03 12:08:18;;;;;;;12.20;3.65;;;27.80;50.30;;;;;;6127653;23;87687;-68
2023/07/03 12:10:49;;;;;;;8.60;3.63;;;27.70;51.40;;;;;;6128341;23;87529;-68
2023/07/03 12:13:35;;;;;;;8.90;4.05;;;27.70;51.90;;;;;;6127933;23;87285;-71
2023/07/03 12:16:11;;;;;;;11.60;3.35;;;27.90;51.80;;;;;;6128561;23;87608;-68
2023/07/03 12:18:37;;;;;;;12.95;4.10;;;28.20;53.50;;;;;;6127063;23;88474;-66
2023/07/03 12:21:05;;;;;;;11.45;3.47;;;28.10;50.80;;;;;;6128144;23;88290;-66
2023/07/03 12:23:37;;;;;;;12.20;3.78;;;27.80;51.10;;;;;;6127856;23;87315;-68
2023/07/03 12:26:11;;;;;;;10.77;3.50;;;27.50;51.20;;;;;;6127912;23;87799;-68
2023/07/03 12:28:37;;;;;;;11.60;3.22;;;27.20;52.10;;;;;;6127711;23;87737;-68
2023/07/03 12:31:13;;;;;;;10.50;3.83;;;27.20;51.10;;;;;;6126542;23;87488;-67
2023/07/03 12:33:59;;;;;;;9.48;3.70;;;27.50;52.80;;;;;;6127704;23;86997;-66
2023/07/03 12:36:25;;;;;;;9.32;3.78;;;27.80;53.60;;;;;;6128166;23;86296;-67
2023/07/03 12:38:51;;;;;;;11.40;4.18;;;28.10;54.80;;;;;;6126537;23;88056;-67
2023/07/03 12:41:33;;;;;;;10.07;3.70;;;28.20;51.90;;;;;;6127598;23;87345;-66
2023/07/03 12:44:01;;;;;;;9.90;3.85;;;28.50;50.30;;;;;;6127256;23;87932;-67
2023/07/03 12:46:32;;;;;;;15.43;4.22;;;28.60;51.80;;;;;;6128356;23;87025;-67
2023/07/03 12:49:06;;;;;;;11.93;4.47;;;28.60;49.80;;;;;;6127576;23;87763;-68
2023/07/03 12:51:54;;;;;;;13.18;4.82;;;28.10;52.30;;;;;;6127060;23;87719;-69
2023/07/03 12:54:21;;;;;;;;;;;27.80;51.90;;;;;;6128721;23;87283;-69
2023/07/03 12:56:49;;;;;;;10.73;4.00;;;27.60;51.80;;;;;;6129789;23;87622;-66
2023/07/03 12:59:20;;;;;;;16.70;4.88;;;27.70;51.90;;;;;;6127270;23;87624;-69
2023/07/03 13:01:51;;;;;;;10.80;3.78;;;27.60;51.10;;;;;;6126894;23;87238;-67
2023/07/03 13:04:33;;;;;;;9.77;3.90;;;27.60;52.00;;;;;;6127415;23;87032;-67
2023/07/03 13:07:01;;;;;;;29.25;5.35;;;27.50;52.00;;;;;;6127808;23;86867;-67
2023/07/03 13:09:29;;;;;;;14.77;4.20;;;27.70;50.80;;;;;;6127093;23;88958;-67
2023/07/03 13:11:55;;;;;;;13.02;3.72;;;27.60;49.90;;;;;;6127068;23;89427;-67
2023/07/03 13:14:27;;;;;;;11.75;4.15;;;27.20;51.80;;;;;;6127180;23;87292;-67
2023/07/03 13:16:56;;;;;;;14.10;3.92;;;27.20;51.00;;;;;;6127558;23;86967;-67
2023/07/03 13:19:34;;;;;;;13.95;4.07;;;27.40;50.50;;;;;;6127398;23;88153;-67
2023/07/03 13:22:21;;;;;;;11.40;4.20;;;27.50;49.90;;;;;;6127699;23;87180;-66
2023/07/03 13:24:51;;;;;;;10.35;3.55;;;27.60;52.60;;;;;;6126778;23;87364;-68
2023/07/03 13:27:25;;;;;;;11.32;3.80;;;27.40;50.90;;;;;;6128221;23;86390;-67
2023/07/03 13:29:57;;;;;;;12.50;3.95;;;27.30;50.20;;;;;;6127451;23;88505;-67
2023/07/03 13:32:23;;;;;;;10.70;3.80;;;27.40;51.40;;;;;;6127513;23;87459;-68
2023/07/03 13:35:00;;;;;;;12.02;3.67;;;27.60;50.20;;;;;;6127081;23;88298;-67
2023/07/03 13:37:29;;;;;;;8.77;4.05;;;27.90;51.60;;;;;;6128173;23;87696;-69
2023/07/03 13:39:55;;;;;;;;;;;28.10;50.20;;;;;;6127486;23;87550;-67
2023/07/03 13:42:21;;;;;;;9.88;3.97;;;28.00;49.70;;;;;;6128975;23;87213;-69
2023/07/03 13:44:46;;;;;;;12.82;3.85;;;27.70;50.70;;;;;;6128113;23;87419;-67
2023/07/03 13:47:12;;;;;;;13.55;3.72;;;27.60;51.80;;;;;;6127808;23;87392;-67
2023/07/03 13:49:39;;;;;;;8.70;3.38;;;27.60;50.80;;;;;;6126140;23;87440;-66
2023/07/03 13:52:07;;;;;;;12.23;3.83;;;27.70;52.20;;;;;;6126504;23;88026;-67
2023/07/03 13:54:33;;;;;;;10.23;5.47;;;27.60;52.00;;;;;;6127656;23;87175;-67
2023/07/03 13:56:59;;;;;;;9.70;4.15;;;27.60;52.30;;;;;;6126764;23;87291;-67
2023/07/03 13:59:25;;;;;;;13.02;4.68;;;27.40;51.50;;;;;;6124224;23;88994;-67
2023/07/03 14:01:50;;;;;;;9.07;3.30;;;27.40;51.90;;;;;;6126379;23;88176;-68
2023/07/03 14:04:16;;;;;;;10.38;3.58;;;27.40;52.00;;;;;;6126649;23;87093;-69
2023/07/03 14:06:42;;;;;;;11.38;3.67;;;27.50;53.70;;;;;;6126787;23;87294;-67
2023/07/03 14:09:11;;;;;;;9.20;3.80;;;27.40;54.40;;;;;;6126352;23;87839;-69
2023/07/03 14:11:37;;;;;;;;;;;27.40;52.70;;;;;;6126694;23;87601;-71
2023/07/03 14:14:05;;;;;;;10.35;3.20;;;27.30;53.50;;;;;;6129037;23;87735;-66
2023/07/03 14:16:31;;;;;;;12.15;3.75;;;27.50;53.60;;;;;;6126855;23;87427;-67
2023/07/03 14:18:57;;;;;;;8.43;3.50;;;27.50;51.40;;;;;;6127542;23;87565;-67
2023/07/03 14:21:24;;;;;;;11.50;3.67;;;27.50;54.50;;;;;;6126248;23;87557;-66
2023/07/03 14:23:50;;;;;;;9.70;3.38;;;27.40;53.90;;;;;;6126163;23;88328;-67
2023/07/03 14:26:16;;;;;;;9.40;3.60;;;27.40;54.80;;;;;;6127127;23;87201;-66
2023/07/03 14:28:44;;;;;;;10.25;3.63;;;27.40;53.00;;;;;;6126747;23;88001;-67
2023/07/03 14:31:13;;;;;;;9.75;3.80;;;27.60;54.80;;;;;;6126469;23;87247;-68
2023/07/03 14:33:39;;;;;;;9.13;3.47;;;27.70;52.50;;;;;;6127118;23;87310;-67
2023/07/03 14:36:04;;;;;;;8.65;3.65;;;27.80;53.50;;;;;;6127078;23;87397;-68
2023/07/03 14:38:30;;;;;;;9.70;3.47;;;27.90;53.80;;;;;;6125195;23;88550;-68
2023/07/03 14:40:57;;;;;;;9.80;3.65;;;27.90;51.10;;;;;;6125994;23;87119;-67
2023/07/03 14:43:23;;;;;;;9.73;3.30;;;27.80;52.30;;;;;;6099481;23;87482;-67
2023/07/03 14:45:48;;;;;;;10.20;3.67;;;27.60;52.50;;;;;;6127382;23;87209;-70
2023/07/03 14:48:14;;;;;;;9.82;3.58;;;27.60;53.20;;;;;;6125336;23;88279;-66
2023/07/03 14:50:40;;;;;;;9.52;4.18;;;27.60;53.20;;;;;;6127174;23;88704;-68
2023/07/03 14:53:06;;;;;;;10.07;3.65;;;27.40;52.10;;;;;;6126751;23;87068;-68
2023/07/03 14:55:32;;;;;;;7.88;3.58;;;27.30;52.00;;;;;;6127402;23;87548;-68
2023/07/03 14:57:57;;;;;;;9.13;3.92;;;27.20;50.70;;;;;;6124592;23;88704;-66
2023/07/03 15:00:23;;;;;;;9.45;3.17;;;27.20;51.10;;;;;;6124378;23;87872;-71
2023/07/03 15:02:50;;;;;;;7.68;3.63;;;27.20;52.10;;;;;;6128906;23;87007;-70
2023/07/03 15:05:17;;;;;;;10.18;4.13;;;27.20;51.20;;;;;;6127976;23;86773;-68
2023/07/03 15:07:44;;;;;;;7.88;3.65;;;27.10;52.20;;;;;;6127516;23;87486;-70
2023/07/03 15:10:11;;;;;;;10.80;4.13;;;26.90;53.70;;;;;;6125966;23;87165;-72
2023/07/03 15:12:38;;;;;;;12.02;3.47;;;26.80;53.60;;;;;;6125457;23;88325;-71
2023/07/03 15:15:05;;;;;;;10.55;3.60;;;26.50;53.80;;;;;;6127923;23;87383;-69
2023/07/03 15:17:30;;;;;;;11.07;3.60;;;26.50;53.10;;;;;;6127509;23;87909;-61
2023/07/03 15:19:56;;;;;;;11.13;3.55;;;26.20;53.50;;;;;;6128252;23;87268;-62
2023/07/03 15:22:22;;;;;;;13.15;3.95;;;26.20;54.30;;;;;;6128061;23;87194;-62
2023/07/03 15:24:48;;;;;;;11.20;3.63;;;26.10;53.60;;;;;;6127573;23;87264;-63
2023/07/03 15:27:14;;;;;;;11.82;4.20;;;26.10;55.60;;;;;;6124547;23;87603;-63
2023/07/03 15:29:40;;;;;;;14.27;3.92;;;26.20;55.30;;;;;;6124255;23;87404;-63
2023/07/03 15:32:06;;;;;;;9.85;2.60;;;26.20;55.70;;;;;;6126165;23;87339;-64
2023/07/03 15:34:32;;;;;;;10.68;3.28;;;26.20;56.30;;;;;;6126307;23;87085;-61
2023/07/03 15:36:58;;;;;;;13.60;3.80;;;26.20;54.90;;;;;;6124820;23;89319;-62
2023/07/03 15:39:25;;;;;;;9.93;3.92;;;26.20;54.40;;;;;;6125642;23;87923;-61
2023/07/03 15:41:51;;;;;;;9.43;3.58;;;26.20;54.60;;;;;;6126091;23;87737;-61
2023/07/03 15:44:18;;;;;;;11.85;3.55;;;26.20;54.60;;;;;;6125989;23;87294;-61
2023/07/03 15:46:44;;;;;;;11.02;4.03;;;26.10;55.00;;;;;;6125482;23;88063;-62
2023/07/03 15:49:11;;;;;;;10.35;2.95;;;26.10;54.10;;;;;;6123361;23;88245;-62
2023/07/03 15:51:36;;;;;;;9.90;3.58;;;26.00;54.80;;;;;;6126132;23;87342;-61
2023/07/03 15:54:03;;;;;;;14.13;3.67;;;26.10;56.30;;;;;;6125432;23;86552;-62
2023/07/03 15:56:29;;;;;;;9.80;3.60;;;26.20;56.30;;;;;;6125259;23;88373;-63
2023/07/03 15:58:56;;;;;;;14.00;3.13;;;26.50;54.50;;;;;;6124222;23;88219;-62
2023/07/03 16:01:24;;;;;;;10.20;3.50;;;26.50;56.50;;;;;;6122375;23;88323;-61
2023/07/03 16:03:58;;;;;;;10.45;2.90;;;26.70;55.90;;;;;;6124435;23;87459;-62
2023/07/03 16:06:26;;;;;;;8.77;3.25;;;26.80;54.60;;;;;;6122366;23;87976;-63
2023/07/03 16:08:58;;;;;;;9.95;3.72;;;26.90;54.00;;;;;;6124774;23;88199;-61
2023/07/03 16:11:25;;;;;;;14.80;4.05;;;26.90;55.20;;;;;;6123338;23;87751;-61
2023/07/03 16:13:51;;;;;;;11.35;3.58;;;26.80;55.10;;;;;;6124422;23;87819;-62
2023/07/03 16:16:24;;;;;;;8.32;3.50;;;26.60;54.40;;;;;;6124336;23;87905;-62
2023/07/03 16:18:52;;;;;;;8.77;3.15;;;26.70;55.00;;;;;;6123699;23;89388;-61
2023/07/03 16:21:20;;;;;;;7.88;3.85;;;26.80;54.00;;;;;;6125419;23;87316;-61
2023/07/03 16:23:46;;;;;;;12.20;3.63;;;26.90;54.50;;;;;;6124196;23;87642;-61
2023/07/03 16:26:12;;;;;;;9.15;3.75;;;27.00;53.90;;;;;;6122952;23;89102;-61
2023/07/03 16:28:38;;;;;;;10.25;3.47;;;27.00;53.10;;;;;;6122089;23;89145;-61
2023/07/03 16:31:05;;;;;;;13.45;3.42;;;26.90;54.20;;;;;;6124902;23;87329;-62
2023/07/03 16:33:34;;;;;;;10.15;3.65;;;26.90;54.70;;;;;;6125133;23;87233;-61
2023/07/03 16:36:07;;;;;;;8.00;3.58;;;26.60;54.70;;;;;;6126461;23;88838;-61
2023/07/03 16:38:34;;;;;;;8.95;3.17;;;26.70;54.40;;;;;;6127387;23;88174;-61
2023/07/03 16:41:04;;;;;;;8.13;2.92;;;26.70;54.60;;;;;;6125901;23;87683;-64
2023/07/03 16:43:37;;;;;;;8.18;3.42;;;26.70;54.70;;;;;;6127628;23;86540;-61
2023/07/03 16:46:05;;;;;;;10.73;3.20;;;26.70;53.50;;;;;;6125169;23;88618;-61
2023/07/03 16:48:32;;;;;;;12.32;3.25;;;26.50;53.80;;;;;;6126485;23;87877;-60
2023/07/03 16:50:59;;;;;;;11.05;3.67;;;26.20;55.00;;;;;;6127085;23;87978;-61
2023/07/03 16:53:37;;;;;;;10.15;3.28;;;26.00;55.30;;;;;;6126277;23;87374;-61
2023/07/03 16:56:14;;;;;;;13.68;3.50;;;25.80;56.00;;;;;;6127043;23;87844;-62
2023/07/03 16:58:43;;;;;;;9.10;3.25;;;25.70;55.30;;;;;;6125666;23;88168;-61
2023/07/03 17:01:14;;;;;;;9.68;3.42;;;25.50;55.70;;;;;;6127323;23;87548;-61
2023/07/03 17:03:40;;;;;;;10.73;3.25;;;25.40;55.10;;;;;;6126424;23;87599;-62
2023/07/03 17:06:20;;;;;;;11.73;3.20;;;25.50;56.40;;;;;;6127658;23;88392;-62
2023/07/03 17:08:47;;;;;;;10.73;3.42;;;25.60;56.10;;;;;;6127983;23;87180;-61
2023/07/03 17:11:13;;;;;;;11.27;3.50;;;25.80;55.30;;;;;;6128199;23;87428;-61
2023/07/03 17:13:39;;;;;;;7.40;2.75;;;25.90;56.20;;;;;;6126653;23;87309;-61
2023/07/03 17:16:05;;;;;;;9.30;3.20;;;26.00;56.00;;;;;;6124811;23;88892;-61
2023/07/03 17:18:31;;;;;;;9.05;3.35;;;26.00;55.40;;;;;;6126900;23;88675;-61
2023/07/03 17:20:57;;;;;;;9.35;4.03;;;25.90;55.40;;;;;;6126941;23;87349;-61
2023/07/03 17:23:22;;;;;;;8.68;2.90;;;25.90;55.90;;;;;;6124631;23;87670;-61
2023/07/03 17:25:49;;;;;;;8.18;3.10;;;26.00;55.00;;;;;;6126397;23;87620;-61
2023/07/03 17:28:16;;;;;;;9.38;3.00;;;25.80;56.20;;;;;;6125696;23;88531;-61
2023/07/03 17:30:42;;;;;;;11.40;3.65;;;25.90;55.00;;;;;;6127211;23;87635;-61
2023/07/03 17:33:10;;;;;;;7.53;2.90;;;25.70;55.50;;;;;;6127149;23;86527;-62
2023/07/03 17:35:39;;;;;;;8.32;3.58;;;25.70;56.40;;;;;;6126592;23;89372;-61
2023/07/03 17:38:06;;;;;;;9.68;3.40;;;25.70;56.80;;;;;;6126268;23;87765;-61
2023/07/03 17:40:32;;;;;;;9.38;3.10;;;25.70;56.30;;;;;;6127784;23;88246;-61
2023/07/03 17:42:57;;;;;;;10.05;3.35;;;25.60;56.30;;;;;;6128057;23;87469;-61
2023/07/03 17:45:23;;;;;;;9.52;3.45;;;25.40;55.80;;;;;;6127669;23;87916;-61
2023/07/03 17:47:49;;;;;;;11.45;3.13;;;25.20;57.20;;;;;;6127881;23;87418;-61
2023/07/03 17:50:14;;;;;;;9.90;3.30;;;25.30;58.00;;;;;;6127056;23;87404;-61
2023/07/03 17:52:40;;;;;;;31.65;3.33;;;25.40;58.90;;;;;;6127977;23;87258;-61
2023/07/03 17:55:06;;;;;;;17.30;2.97;;;25.50;58.30;;;;;;6127450;23;87331;-61